sensor_id;sensor_type;location;lat;lon;timestamp;P1;durP1;ratioP1;P2;durP2;ratioP2
9689;SDS011;4884;42.614;23.340;2022-07-23T00:01:53;6.13;;;4.87;;
9689;SDS011;4884;42.614;23.340;2022-07-23T00:04:19;10.00;;;4.80;;
9689;SDS011;4884;42.614;23.340;2022-07-23T00:06:44;8.17;;;5.33;;
9689;SDS011;4884;42.614;23.340;2022-07-23T00:09:10;7.13;;;5.00;;
9689;SDS011;4884;42.614;23.340;2022-07-23T00:11:35;6.53;;;4.97;;
9689;SDS011;4884;42.614;23.340;2022-07-23T00:14:00;8.67;;;5.57;;
9689;SDS011;4884;42.614;23.340;2022-07-23T00:16:26;12.53;;;5.47;;
9689;SDS011;4884;42.614;23.340;2022-07-23T00:18:51;8.30;;;5.13;;
9689;SDS011;4884;42.614;23.340;2022-07-23T00:21:17;6.93;;;5.10;;
9689;SDS011;4884;42.614;23.340;2022-07-23T00:23:42;10.20;;;5.13;;
9689;SDS011;4884;42.614;23.340;2022-07-23T00:26:08;5.60;;;4.60;;
9689;SDS011;4884;42.614;23.340;2022-07-23T00:28:33;6.53;;;4.77;;
9689;SDS011;4884;42.614;23.340;2022-07-23T00:30:59;8.93;;;5.67;;
9689;SDS011;4884;42.614;23.340;2022-07-23T00:33:24;13.70;;;5.73;;
9689;SDS011;4884;42.614;23.340;2022-07-23T00:35:50;9.43;;;5.80;;
9689;SDS011;4884;42.614;23.340;2022-07-23T00:38:15;12.03;;;5.33;;
9689;SDS011;4884;42.614;23.340;2022-07-23T00:40:41;5.67;;;5.07;;
9689;SDS011;4884;42.614;23.340;2022-07-23T00:43:07;9.47;;;5.80;;
9689;SDS011;4884;42.614;23.340;2022-07-23T00:45:32;7.17;;;4.60;;
9689;SDS011;4884;42.614;23.340;2022-07-23T00:47:58;6.50;;;5.03;;
9689;SDS011;4884;42.614;23.340;2022-07-23T00:50:24;7.93;;;5.33;;
9689;SDS011;4884;42.614;23.340;2022-07-23T00:52:50;6.20;;;5.07;;
9689;SDS011;4884;42.614;23.340;2022-07-23T00:55:16;7.20;;;5.00;;
9689;SDS011;4884;42.614;23.340;2022-07-23T00:57:42;8.07;;;5.87;;
9689;SDS011;4884;42.614;23.340;2022-07-23T01:00:09;6.17;;;4.87;;
9689;SDS011;4884;42.614;23.340;2022-07-23T01:02:37;9.97;;;5.43;;
9689;SDS011;4884;42.614;23.340;2022-07-23T01:05:03;9.37;;;5.43;;
9689;SDS011;4884;42.614;23.340;2022-07-23T01:07:30;8.97;;;5.23;;
9689;SDS011;4884;42.614;23.340;2022-07-23T01:09:55;9.73;;;5.90;;
9689;SDS011;4884;42.614;23.340;2022-07-23T01:12:21;10.07;;;5.53;;
9689;SDS011;4884;42.614;23.340;2022-07-23T01:15:20;7.60;;;5.63;;
9689;SDS011;4884;42.614;23.340;2022-07-23T01:17:38;6.97;;;5.03;;
9689;SDS011;4884;42.614;23.340;2022-07-23T01:20:04;10.43;;;5.23;;
9689;SDS011;4884;42.614;23.340;2022-07-23T01:22:30;8.73;;;4.40;;
9689;SDS011;4884;42.614;23.340;2022-07-23T01:24:55;6.87;;;5.53;;
9689;SDS011;4884;42.614;23.340;2022-07-23T01:27:20;9.37;;;5.13;;
9689;SDS011;4884;42.614;23.340;2022-07-23T01:29:46;9.33;;;5.13;;
9689;SDS011;4884;42.614;23.340;2022-07-23T01:32:11;8.33;;;5.40;;
9689;SDS011;4884;42.614;23.340;2022-07-23T01:34:37;6.40;;;4.73;;
9689;SDS011;4884;42.614;23.340;2022-07-23T01:37:02;6.07;;;5.47;;
9689;SDS011;4884;42.614;23.340;2022-07-23T01:39:28;13.83;;;5.03;;
9689;SDS011;4884;42.614;23.340;2022-07-23T01:41:53;7.97;;;5.17;;
9689;SDS011;4884;42.614;23.340;2022-07-23T01:44:19;5.23;;;4.73;;
9689;SDS011;4884;42.614;23.340;2022-07-23T01:46:44;6.17;;;5.07;;
9689;SDS011;4884;42.614;23.340;2022-07-23T01:49:09;5.63;;;5.03;;
9689;SDS011;4884;42.614;23.340;2022-07-23T01:51:35;7.53;;;5.00;;
9689;SDS011;4884;42.614;23.340;2022-07-23T01:54:00;7.43;;;5.67;;
9689;SDS011;4884;42.614;23.340;2022-07-23T01:56:26;12.43;;;5.10;;
9689;SDS011;4884;42.614;23.340;2022-07-23T01:58:51;7.00;;;6.07;;
9689;SDS011;4884;42.614;23.340;2022-07-23T02:01:16;7.10;;;5.13;;
9689;SDS011;4884;42.614;23.340;2022-07-23T02:03:42;7.70;;;5.53;;
9689;SDS011;4884;42.614;23.340;2022-07-23T02:06:07;7.03;;;5.00;;
9689;SDS011;4884;42.614;23.340;2022-07-23T02:08:33;6.87;;;5.37;;
9689;SDS011;4884;42.614;23.340;2022-07-23T02:10:58;6.90;;;5.77;;
9689;SDS011;4884;42.614;23.340;2022-07-23T02:13:24;8.73;;;5.80;;
9689;SDS011;4884;42.614;23.340;2022-07-23T02:15:49;17.83;;;5.97;;
9689;SDS011;4884;42.614;23.340;2022-07-23T02:18:15;7.33;;;5.10;;
9689;SDS011;4884;42.614;23.340;2022-07-23T02:20:41;7.57;;;5.03;;
9689;SDS011;4884;42.614;23.340;2022-07-23T02:23:07;6.17;;;5.37;;
9689;SDS011;4884;42.614;23.340;2022-07-23T02:25:33;9.67;;;5.57;;
9689;SDS011;4884;42.614;23.340;2022-07-23T02:27:59;7.70;;;5.50;;
9689;SDS011;4884;42.614;23.340;2022-07-23T02:30:24;6.17;;;5.07;;
9689;SDS011;4884;42.614;23.340;2022-07-23T02:32:50;5.10;;;4.40;;
9689;SDS011;4884;42.614;23.340;2022-07-23T02:35:15;9.43;;;5.10;;
9689;SDS011;4884;42.614;23.340;2022-07-23T02:37:41;8.77;;;5.70;;
9689;SDS011;4884;42.614;23.340;2022-07-23T02:40:06;7.33;;;5.63;;
9689;SDS011;4884;42.614;23.340;2022-07-23T02:42:32;6.50;;;4.77;;
9689;SDS011;4884;42.614;23.340;2022-07-23T02:44:57;8.73;;;5.27;;
9689;SDS011;4884;42.614;23.340;2022-07-23T02:47:23;7.67;;;5.13;;
9689;SDS011;4884;42.614;23.340;2022-07-23T02:49:48;7.67;;;5.23;;
9689;SDS011;4884;42.614;23.340;2022-07-23T02:52:14;7.33;;;5.33;;
9689;SDS011;4884;42.614;23.340;2022-07-23T02:54:39;7.30;;;4.90;;
9689;SDS011;4884;42.614;23.340;2022-07-23T02:57:05;4.80;;;4.40;;
9689;SDS011;4884;42.614;23.340;2022-07-23T02:59:30;8.03;;;5.00;;
9689;SDS011;4884;42.614;23.340;2022-07-23T03:01:56;5.43;;;4.57;;
9689;SDS011;4884;42.614;23.340;2022-07-23T03:04:21;8.40;;;5.13;;
9689;SDS011;4884;42.614;23.340;2022-07-23T03:06:47;5.77;;;5.17;;
9689;SDS011;4884;42.614;23.340;2022-07-23T03:09:12;6.37;;;5.47;;
9689;SDS011;4884;42.614;23.340;2022-07-23T03:11:38;7.30;;;4.83;;
9689;SDS011;4884;42.614;23.340;2022-07-23T03:14:03;8.07;;;5.10;;
9689;SDS011;4884;42.614;23.340;2022-07-23T03:16:29;8.60;;;5.53;;
9689;SDS011;4884;42.614;23.340;2022-07-23T03:18:54;5.67;;;5.07;;
9689;SDS011;4884;42.614;23.340;2022-07-23T03:21:20;9.07;;;5.30;;
9689;SDS011;4884;42.614;23.340;2022-07-23T03:23:45;8.63;;;5.63;;
9689;SDS011;4884;42.614;23.340;2022-07-23T03:26:10;10.93;;;5.40;;
9689;SDS011;4884;42.614;23.340;2022-07-23T03:28:36;7.97;;;5.07;;
9689;SDS011;4884;42.614;23.340;2022-07-23T03:31:01;6.53;;;4.83;;
9689;SDS011;4884;42.614;23.340;2022-07-23T03:33:27;8.80;;;5.17;;
9689;SDS011;4884;42.614;23.340;2022-07-23T03:35:52;7.77;;;5.33;;
9689;SDS011;4884;42.614;23.340;2022-07-23T03:38:18;6.53;;;5.23;;
9689;SDS011;4884;42.614;23.340;2022-07-23T03:40:43;5.93;;;5.33;;
9689;SDS011;4884;42.614;23.340;2022-07-23T03:43:09;9.53;;;5.50;;
9689;SDS011;4884;42.614;23.340;2022-07-23T03:45:34;7.90;;;5.73;;
9689;SDS011;4884;42.614;23.340;2022-07-23T03:48:00;9.70;;;6.23;;
9689;SDS011;4884;42.614;23.340;2022-07-23T03:50:25;13.23;;;6.20;;
9689;SDS011;4884;42.614;23.340;2022-07-23T03:52:51;8.00;;;6.57;;
9689;SDS011;4884;42.614;23.340;2022-07-23T03:55:17;8.90;;;5.83;;
9689;SDS011;4884;42.614;23.340;2022-07-23T03:57:42;11.33;;;7.63;;
9689;SDS011;4884;42.614;23.340;2022-07-23T04:00:09;12.43;;;7.47;;
9689;SDS011;4884;42.614;23.340;2022-07-23T04:02:36;11.43;;;6.50;;
9689;SDS011;4884;42.614;23.340;2022-07-23T04:05:02;7.77;;;6.43;;
9689;SDS011;4884;42.614;23.340;2022-07-23T04:07:28;9.50;;;6.60;;
9689;SDS011;4884;42.614;23.340;2022-07-23T04:09:53;12.47;;;6.13;;
9689;SDS011;4884;42.614;23.340;2022-07-23T04:12:19;10.80;;;6.50;;
9689;SDS011;4884;42.614;23.340;2022-07-23T04:14:44;8.97;;;6.83;;
9689;SDS011;4884;42.614;23.340;2022-07-23T04:17:10;7.90;;;6.53;;
9689;SDS011;4884;42.614;23.340;2022-07-23T04:19:36;7.73;;;5.90;;
9689;SDS011;4884;42.614;23.340;2022-07-23T04:22:05;9.03;;;6.00;;
9689;SDS011;4884;42.614;23.340;2022-07-23T04:24:33;8.10;;;6.57;;
9689;SDS011;4884;42.614;23.340;2022-07-23T04:26:59;10.23;;;6.53;;
9689;SDS011;4884;42.614;23.340;2022-07-23T04:29:25;12.90;;;6.83;;
9689;SDS011;4884;42.614;23.340;2022-07-23T04:31:50;12.13;;;7.17;;
9689;SDS011;4884;42.614;23.340;2022-07-23T04:34:16;9.73;;;7.03;;
9689;SDS011;4884;42.614;23.340;2022-07-23T04:36:41;10.33;;;6.60;;
9689;SDS011;4884;42.614;23.340;2022-07-23T04:39:07;9.30;;;7.07;;
9689;SDS011;4884;42.614;23.340;2022-07-23T04:41:33;8.67;;;6.57;;
9689;SDS011;4884;42.614;23.340;2022-07-23T04:43:59;15.70;;;7.57;;
9689;SDS011;4884;42.614;23.340;2022-07-23T04:46:26;7.50;;;6.67;;
9689;SDS011;4884;42.614;23.340;2022-07-23T04:48:51;10.40;;;7.57;;
9689;SDS011;4884;42.614;23.340;2022-07-23T04:51:17;10.10;;;6.60;;
9689;SDS011;4884;42.614;23.340;2022-07-23T04:53:42;14.50;;;7.40;;
9689;SDS011;4884;42.614;23.340;2022-07-23T04:56:08;10.60;;;7.77;;
9689;SDS011;4884;42.614;23.340;2022-07-23T04:58:33;8.50;;;7.60;;
9689;SDS011;4884;42.614;23.340;2022-07-23T05:00:59;8.57;;;7.20;;
9689;SDS011;4884;42.614;23.340;2022-07-23T05:03:25;11.43;;;8.00;;
9689;SDS011;4884;42.614;23.340;2022-07-23T05:05:50;9.63;;;8.70;;
9689;SDS011;4884;42.614;23.340;2022-07-23T05:08:16;10.37;;;8.33;;
9689;SDS011;4884;42.614;23.340;2022-07-23T05:10:41;13.90;;;8.17;;
9689;SDS011;4884;42.614;23.340;2022-07-23T05:13:07;14.37;;;8.77;;
9689;SDS011;4884;42.614;23.340;2022-07-23T05:15:32;9.70;;;8.47;;
9689;SDS011;4884;42.614;23.340;2022-07-23T05:17:57;13.23;;;8.63;;
9689;SDS011;4884;42.614;23.340;2022-07-23T05:20:23;10.67;;;9.27;;
9689;SDS011;4884;42.614;23.340;2022-07-23T05:22:48;10.27;;;8.77;;
9689;SDS011;4884;42.614;23.340;2022-07-23T05:25:14;10.07;;;9.10;;
9689;SDS011;4884;42.614;23.340;2022-07-23T05:27:39;10.37;;;8.87;;
9689;SDS011;4884;42.614;23.340;2022-07-23T05:30:05;10.77;;;8.97;;
9689;SDS011;4884;42.614;23.340;2022-07-23T05:32:31;9.80;;;8.77;;
9689;SDS011;4884;42.614;23.340;2022-07-23T05:34:57;9.37;;;7.77;;
9689;SDS011;4884;42.614;23.340;2022-07-23T05:37:22;10.37;;;6.87;;
9689;SDS011;4884;42.614;23.340;2022-07-23T05:39:48;8.67;;;7.77;;
9689;SDS011;4884;42.614;23.340;2022-07-23T05:42:13;7.33;;;6.73;;
9689;SDS011;4884;42.614;23.340;2022-07-23T05:44:39;12.60;;;7.03;;
9689;SDS011;4884;42.614;23.340;2022-07-23T05:47:04;8.97;;;7.73;;
9689;SDS011;4884;42.614;23.340;2022-07-23T05:49:30;8.87;;;6.63;;
9689;SDS011;4884;42.614;23.340;2022-07-23T05:51:55;8.13;;;7.17;;
9689;SDS011;4884;42.614;23.340;2022-07-23T05:54:21;8.17;;;6.97;;
9689;SDS011;4884;42.614;23.340;2022-07-23T05:56:46;8.00;;;7.20;;
9689;SDS011;4884;42.614;23.340;2022-07-23T05:59:11;9.10;;;8.20;;
9689;SDS011;4884;42.614;23.340;2022-07-23T06:01:38;10.20;;;6.40;;
9689;SDS011;4884;42.614;23.340;2022-07-23T06:04:03;7.50;;;6.80;;
9689;SDS011;4884;42.614;23.340;2022-07-23T06:06:29;7.90;;;6.77;;
9689;SDS011;4884;42.614;23.340;2022-07-23T06:08:54;9.20;;;7.30;;
9689;SDS011;4884;42.614;23.340;2022-07-23T06:11:20;11.37;;;7.83;;
9689;SDS011;4884;42.614;23.340;2022-07-23T06:13:45;10.43;;;7.80;;
9689;SDS011;4884;42.614;23.340;2022-07-23T06:16:11;8.80;;;7.90;;
9689;SDS011;4884;42.614;23.340;2022-07-23T06:18:36;10.03;;;8.33;;
9689;SDS011;4884;42.614;23.340;2022-07-23T06:21:01;12.10;;;7.27;;
9689;SDS011;4884;42.614;23.340;2022-07-23T06:23:27;10.90;;;7.53;;
9689;SDS011;4884;42.614;23.340;2022-07-23T06:25:52;9.93;;;7.90;;
9689;SDS011;4884;42.614;23.340;2022-07-23T06:28:18;13.17;;;7.60;;
9689;SDS011;4884;42.614;23.340;2022-07-23T06:30:43;14.23;;;7.27;;
9689;SDS011;4884;42.614;23.340;2022-07-23T06:33:09;17.70;;;7.90;;
9689;SDS011;4884;42.614;23.340;2022-07-23T06:35:36;11.67;;;6.93;;
9689;SDS011;4884;42.614;23.340;2022-07-23T06:38:02;8.32;;;7.32;;
9689;SDS011;4884;42.614;23.340;2022-07-23T06:40:27;10.35;;;7.22;;
9689;SDS011;4884;42.614;23.340;2022-07-23T06:42:53;8.90;;;6.85;;
9689;SDS011;4884;42.614;23.340;2022-07-23T06:45:18;12.35;;;7.43;;
9689;SDS011;4884;42.614;23.340;2022-07-23T06:47:44;10.73;;;7.00;;
9689;SDS011;4884;42.614;23.340;2022-07-23T06:50:09;15.07;;;7.78;;
9689;SDS011;4884;42.614;23.340;2022-07-23T06:52:35;13.95;;;7.47;;
9689;SDS011;4884;42.614;23.340;2022-07-23T06:55:01;11.50;;;7.68;;
9689;SDS011;4884;42.614;23.340;2022-07-23T06:57:27;11.38;;;7.32;;
9689;SDS011;4884;42.614;23.340;2022-07-23T06:59:53;8.02;;;7.18;;
9689;SDS011;4884;42.614;23.340;2022-07-23T07:02:18;8.88;;;8.00;;
9689;SDS011;4884;42.614;23.340;2022-07-23T07:04:44;10.18;;;6.60;;
9689;SDS011;4884;42.614;23.340;2022-07-23T07:07:10;15.25;;;8.60;;
9689;SDS011;4884;42.614;23.340;2022-07-23T07:09:36;8.60;;;7.68;;
9689;SDS011;4884;42.614;23.340;2022-07-23T07:12:02;12.65;;;7.40;;
9689;SDS011;4884;42.614;23.340;2022-07-23T07:14:28;16.70;;;8.38;;
9689;SDS011;4884;42.614;23.340;2022-07-23T07:16:54;11.55;;;7.97;;
9689;SDS011;4884;42.614;23.340;2022-07-23T07:19:19;14.23;;;7.97;;
9689;SDS011;4884;42.614;23.340;2022-07-23T07:21:45;12.52;;;8.07;;
9689;SDS011;4884;42.614;23.340;2022-07-23T07:24:10;14.40;;;8.30;;
9689;SDS011;4884;42.614;23.340;2022-07-23T07:26:35;9.35;;;7.38;;
9689;SDS011;4884;42.614;23.340;2022-07-23T07:29:01;11.90;;;9.32;;
9689;SDS011;4884;42.614;23.340;2022-07-23T07:31:27;9.40;;;6.93;;
9689;SDS011;4884;42.614;23.340;2022-07-23T07:33:52;11.52;;;8.07;;
9689;SDS011;4884;42.614;23.340;2022-07-23T07:36:18;8.20;;;7.40;;
9689;SDS011;4884;42.614;23.340;2022-07-23T07:38:43;14.02;;;8.80;;
9689;SDS011;4884;42.614;23.340;2022-07-23T07:41:09;10.07;;;7.53;;
9689;SDS011;4884;42.614;23.340;2022-07-23T07:43:35;9.73;;;7.60;;
9689;SDS011;4884;42.614;23.340;2022-07-23T07:46:01;9.95;;;7.45;;
9689;SDS011;4884;42.614;23.340;2022-07-23T07:48:27;9.57;;;7.05;;
9689;SDS011;4884;42.614;23.340;2022-07-23T07:50:53;11.70;;;7.43;;
9689;SDS011;4884;42.614;23.340;2022-07-23T07:53:18;9.98;;;7.45;;
9689;SDS011;4884;42.614;23.340;2022-07-23T07:55:44;8.77;;;8.05;;
9689;SDS011;4884;42.614;23.340;2022-07-23T07:58:09;9.98;;;8.02;;
9689;SDS011;4884;42.614;23.340;2022-07-23T08:00:34;10.02;;;7.40;;
9689;SDS011;4884;42.614;23.340;2022-07-23T08:03:00;10.98;;;7.90;;
9689;SDS011;4884;42.614;23.340;2022-07-23T08:05:26;9.82;;;7.60;;
9689;SDS011;4884;42.614;23.340;2022-07-23T08:07:57;11.60;;;7.95;;
9689;SDS011;4884;42.614;23.340;2022-07-23T08:10:24;14.35;;;8.02;;
9689;SDS011;4884;42.614;23.340;2022-07-23T08:12:51;15.77;;;8.20;;
9689;SDS011;4884;42.614;23.340;2022-07-23T08:15:18;11.00;;;7.45;;
9689;SDS011;4884;42.614;23.340;2022-07-23T08:17:45;8.95;;;8.07;;
9689;SDS011;4884;42.614;23.340;2022-07-23T08:20:12;16.77;;;8.30;;
9689;SDS011;4884;42.614;23.340;2022-07-23T08:25:15;16.17;;;8.23;;
9689;SDS011;4884;42.614;23.340;2022-07-23T08:27:48;15.43;;;8.68;;
9689;SDS011;4884;42.614;23.340;2022-07-23T08:30:14;10.90;;;8.20;;
9689;SDS011;4884;42.614;23.340;2022-07-23T08:33:15;13.95;;;8.35;;
9689;SDS011;4884;42.614;23.340;2022-07-23T08:35:38;12.98;;;8.57;;
9689;SDS011;4884;42.614;23.340;2022-07-23T08:38:06;11.52;;;8.48;;
9689;SDS011;4884;42.614;23.340;2022-07-23T08:40:34;8.73;;;6.82;;
9689;SDS011;4884;42.614;23.340;2022-07-23T08:43:05;15.73;;;8.00;;
9689;SDS011;4884;42.614;23.340;2022-07-23T08:45:35;9.93;;;7.35;;
9689;SDS011;4884;42.614;23.340;2022-07-23T08:48:11;11.73;;;8.00;;
9689;SDS011;4884;42.614;23.340;2022-07-23T08:50:41;14.15;;;7.50;;
9689;SDS011;4884;42.614;23.340;2022-07-23T08:53:08;9.98;;;7.72;;
9689;SDS011;4884;42.614;23.340;2022-07-23T08:55:35;12.02;;;7.18;;
9689;SDS011;4884;42.614;23.340;2022-07-23T08:58:01;16.20;;;7.93;;
9689;SDS011;4884;42.614;23.340;2022-07-23T09:00:27;7.38;;;6.63;;
9689;SDS011;4884;42.614;23.340;2022-07-23T09:02:53;17.92;;;8.02;;
9689;SDS011;4884;42.614;23.340;2022-07-23T09:05:19;10.68;;;8.05;;
9689;SDS011;4884;42.614;23.340;2022-07-23T09:10:32;12.52;;;8.15;;
9689;SDS011;4884;42.614;23.340;2022-07-23T09:15:52;10.60;;;7.60;;
9689;SDS011;4884;42.614;23.340;2022-07-23T09:18:19;8.05;;;7.28;;
9689;SDS011;4884;42.614;23.340;2022-07-23T09:20:44;8.73;;;7.38;;
9689;SDS011;4884;42.614;23.340;2022-07-23T09:23:10;9.35;;;7.18;;
9689;SDS011;4884;42.614;23.340;2022-07-23T09:25:35;10.80;;;7.13;;
9689;SDS011;4884;42.614;23.340;2022-07-23T09:28:01;11.00;;;8.05;;
9689;SDS011;4884;42.614;23.340;2022-07-23T09:30:31;8.25;;;7.53;;
9689;SDS011;4884;42.614;23.340;2022-07-23T09:33:30;8.50;;;7.60;;
9689;SDS011;4884;42.614;23.340;2022-07-23T09:35:51;11.88;;;7.05;;
9689;SDS011;4884;42.614;23.340;2022-07-23T09:38:19;8.77;;;7.47;;
9689;SDS011;4884;42.614;23.340;2022-07-23T09:40:46;11.57;;;7.55;;
9689;SDS011;4884;42.614;23.340;2022-07-23T09:43:29;15.27;;;8.10;;
9689;SDS011;4884;42.614;23.340;2022-07-23T09:46:16;11.32;;;7.03;;
9689;SDS011;4884;42.614;23.340;2022-07-23T09:48:51;8.82;;;6.43;;
9689;SDS011;4884;42.614;23.340;2022-07-23T09:51:18;7.00;;;6.13;;
9689;SDS011;4884;42.614;23.340;2022-07-23T09:54:02;7.25;;;5.80;;
9689;SDS011;4884;42.614;23.340;2022-07-23T09:56:27;8.27;;;6.32;;
9689;SDS011;4884;42.614;23.340;2022-07-23T09:58:53;8.60;;;5.55;;
9689;SDS011;4884;42.614;23.340;2022-07-23T10:01:28;8.38;;;7.55;;
9689;SDS011;4884;42.614;23.340;2022-07-23T10:03:55;8.23;;;6.72;;
9689;SDS011;4884;42.614;23.340;2022-07-23T10:06:21;7.57;;;6.13;;
9689;SDS011;4884;42.614;23.340;2022-07-23T10:08:47;9.30;;;7.65;;
9689;SDS011;4884;42.614;23.340;2022-07-23T10:11:13;9.63;;;6.93;;
9689;SDS011;4884;42.614;23.340;2022-07-23T10:13:40;9.90;;;6.85;;
9689;SDS011;4884;42.614;23.340;2022-07-23T10:16:22;10.23;;;6.68;;
9689;SDS011;4884;42.614;23.340;2022-07-23T10:18:48;10.65;;;7.15;;
9689;SDS011;4884;42.614;23.340;2022-07-23T10:21:16;10.48;;;7.45;;
9689;SDS011;4884;42.614;23.340;2022-07-23T10:29:47;11.75;;;6.45;;
9689;SDS011;4884;42.614;23.340;2022-07-23T10:35:06;11.15;;;6.28;;
9689;SDS011;4884;42.614;23.340;2022-07-23T10:37:35;9.00;;;6.22;;
9689;SDS011;4884;42.614;23.340;2022-07-23T10:40:11;11.40;;;6.40;;
9689;SDS011;4884;42.614;23.340;2022-07-23T10:42:48;9.93;;;5.55;;
9689;SDS011;4884;42.614;23.340;2022-07-23T10:48:12;7.93;;;5.78;;
9689;SDS011;4884;42.614;23.340;2022-07-23T10:50:42;9.95;;;6.20;;
9689;SDS011;4884;42.614;23.340;2022-07-23T10:58:06;5.85;;;5.25;;
9689;SDS011;4884;42.614;23.340;2022-07-23T11:00:32;10.45;;;5.47;;
9689;SDS011;4884;42.614;23.340;2022-07-23T11:03:00;11.88;;;6.70;;
9689;SDS011;4884;42.614;23.340;2022-07-23T11:05:48;8.68;;;5.93;;
9689;SDS011;4884;42.614;23.340;2022-07-23T11:08:13;8.50;;;4.65;;
9689;SDS011;4884;42.614;23.340;2022-07-23T11:13:27;9.40;;;6.22;;
9689;SDS011;4884;42.614;23.340;2022-07-23T11:31:53;11.77;;;6.43;;
9689;SDS011;4884;42.614;23.340;2022-07-23T11:34:30;9.10;;;5.80;;
9689;SDS011;4884;42.614;23.340;2022-07-23T11:36:58;8.60;;;5.95;;
9689;SDS011;4884;42.614;23.340;2022-07-23T11:39:25;10.77;;;5.45;;
9689;SDS011;4884;42.614;23.340;2022-07-23T11:41:53;9.30;;;6.38;;
9689;SDS011;4884;42.614;23.340;2022-07-23T11:44:30;7.93;;;5.85;;
9689;SDS011;4884;42.614;23.340;2022-07-23T11:47:09;10.07;;;5.72;;
9689;SDS011;4884;42.614;23.340;2022-07-23T11:49:36;12.90;;;5.68;;
9689;SDS011;4884;42.614;23.340;2022-07-23T11:54:32;14.20;;;6.38;;
9689;SDS011;4884;42.614;23.340;2022-07-23T11:57:00;7.32;;;5.55;;
9689;SDS011;4884;42.614;23.340;2022-07-23T11:59:27;9.07;;;5.95;;
9689;SDS011;4884;42.614;23.340;2022-07-23T12:02:00;12.43;;;7.13;;
9689;SDS011;4884;42.614;23.340;2022-07-23T12:04:39;8.68;;;5.85;;
9689;SDS011;4884;42.614;23.340;2022-07-23T12:07:25;6.72;;;5.18;;
9689;SDS011;4884;42.614;23.340;2022-07-23T12:09:50;11.10;;;6.55;;
9689;SDS011;4884;42.614;23.340;2022-07-23T12:12:16;10.35;;;6.43;;
9689;SDS011;4884;42.614;23.340;2022-07-23T12:14:49;9.30;;;5.70;;
9689;SDS011;4884;42.614;23.340;2022-07-23T12:17:17;10.27;;;6.10;;
9689;SDS011;4884;42.614;23.340;2022-07-23T12:19:43;7.28;;;5.75;;
9689;SDS011;4884;42.614;23.340;2022-07-23T12:22:09;12.15;;;6.45;;
9689;SDS011;4884;42.614;23.340;2022-07-23T12:27:29;10.57;;;5.63;;
9689;SDS011;4884;42.614;23.340;2022-07-23T12:29:55;10.32;;;5.78;;
9689;SDS011;4884;42.614;23.340;2022-07-23T12:32:21;9.80;;;5.40;;
9689;SDS011;4884;42.614;23.340;2022-07-23T12:34:49;10.55;;;6.22;;
9689;SDS011;4884;42.614;23.340;2022-07-23T12:37:33;11.65;;;5.20;;
9689;SDS011;4884;42.614;23.340;2022-07-23T12:42:44;10.25;;;5.57;;
9689;SDS011;4884;42.614;23.340;2022-07-23T12:45:14;12.80;;;5.15;;
9689;SDS011;4884;42.614;23.340;2022-07-23T12:50:30;13.18;;;6.25;;
9689;SDS011;4884;42.614;23.340;2022-07-23T12:53:03;9.05;;;5.88;;
9689;SDS011;4884;42.614;23.340;2022-07-23T12:55:30;9.13;;;5.47;;
9689;SDS011;4884;42.614;23.340;2022-07-23T12:58:02;12.55;;;5.38;;
9689;SDS011;4884;42.614;23.340;2022-07-23T13:00:30;11.85;;;5.85;;
9689;SDS011;4884;42.614;23.340;2022-07-23T13:02:55;17.77;;;5.80;;
9689;SDS011;4884;42.614;23.340;2022-07-23T13:05:21;10.93;;;5.72;;
9689;SDS011;4884;42.614;23.340;2022-07-23T13:07:46;13.70;;;5.60;;
9689;SDS011;4884;42.614;23.340;2022-07-23T13:10:12;13.57;;;5.88;;
9689;SDS011;4884;42.614;23.340;2022-07-23T13:12:37;10.68;;;5.65;;
9689;SDS011;4884;42.614;23.340;2022-07-23T13:15:03;12.93;;;5.47;;
9689;SDS011;4884;42.614;23.340;2022-07-23T13:17:29;9.15;;;5.28;;
9689;SDS011;4884;42.614;23.340;2022-07-23T13:19:54;15.30;;;6.40;;
9689;SDS011;4884;42.614;23.340;2022-07-23T13:22:20;11.35;;;5.15;;
9689;SDS011;4884;42.614;23.340;2022-07-23T13:24:45;8.45;;;5.53;;
9689;SDS011;4884;42.614;23.340;2022-07-23T13:27:11;11.85;;;4.93;;
9689;SDS011;4884;42.614;23.340;2022-07-23T13:29:36;11.13;;;5.28;;
9689;SDS011;4884;42.614;23.340;2022-07-23T13:32:02;13.85;;;6.15;;
9689;SDS011;4884;42.614;23.340;2022-07-23T13:34:28;9.63;;;4.88;;
9689;SDS011;4884;42.614;23.340;2022-07-23T13:36:53;12.88;;;4.97;;
9689;SDS011;4884;42.614;23.340;2022-07-23T13:39:19;12.93;;;5.75;;
9689;SDS011;4884;42.614;23.340;2022-07-23T13:41:44;11.18;;;5.95;;
9689;SDS011;4884;42.614;23.340;2022-07-23T13:44:09;8.35;;;5.57;;
9689;SDS011;4884;42.614;23.340;2022-07-23T13:46:35;10.30;;;5.30;;
9689;SDS011;4884;42.614;23.340;2022-07-23T13:49:00;12.20;;;5.05;;
9689;SDS011;4884;42.614;23.340;2022-07-23T13:51:26;7.32;;;5.05;;
9689;SDS011;4884;42.614;23.340;2022-07-23T13:53:52;7.72;;;5.18;;
9689;SDS011;4884;42.614;23.340;2022-07-23T13:56:17;9.57;;;5.03;;
9689;SDS011;4884;42.614;23.340;2022-07-23T13:58:43;11.00;;;5.50;;
9689;SDS011;4884;42.614;23.340;2022-07-23T14:01:08;7.53;;;4.72;;
9689;SDS011;4884;42.614;23.340;2022-07-23T14:03:34;13.85;;;6.07;;
9689;SDS011;4884;42.614;23.340;2022-07-23T14:05:59;10.90;;;5.30;;
9689;SDS011;4884;42.614;23.340;2022-07-23T14:08:25;7.72;;;4.82;;
9689;SDS011;4884;42.614;23.340;2022-07-23T14:10:50;11.43;;;5.88;;
9689;SDS011;4884;42.614;23.340;2022-07-23T14:13:16;9.32;;;6.82;;
9689;SDS011;4884;42.614;23.340;2022-07-23T14:15:41;11.63;;;5.45;;
9689;SDS011;4884;42.614;23.340;2022-07-23T14:18:07;14.18;;;6.00;;
9689;SDS011;4884;42.614;23.340;2022-07-23T14:20:33;8.55;;;5.38;;
9689;SDS011;4884;42.614;23.340;2022-07-23T14:22:59;8.10;;;4.68;;
9689;SDS011;4884;42.614;23.340;2022-07-23T14:25:25;11.05;;;5.18;;
9689;SDS011;4884;42.614;23.340;2022-07-23T14:27:51;9.75;;;5.25;;
9689;SDS011;4884;42.614;23.340;2022-07-23T14:30:17;10.10;;;5.85;;
9689;SDS011;4884;42.614;23.340;2022-07-23T14:32:42;12.40;;;5.72;;
9689;SDS011;4884;42.614;23.340;2022-07-23T14:35:08;9.45;;;5.93;;
9689;SDS011;4884;42.614;23.340;2022-07-23T14:37:34;11.38;;;6.03;;
9689;SDS011;4884;42.614;23.340;2022-07-23T14:39:59;11.20;;;6.47;;
9689;SDS011;4884;42.614;23.340;2022-07-23T14:42:25;7.10;;;5.13;;
9689;SDS011;4884;42.614;23.340;2022-07-23T14:44:51;11.02;;;5.40;;
9689;SDS011;4884;42.614;23.340;2022-07-23T14:47:16;11.02;;;5.78;;
9689;SDS011;4884;42.614;23.340;2022-07-23T14:49:42;8.48;;;5.40;;
9689;SDS011;4884;42.614;23.340;2022-07-23T14:52:08;9.70;;;5.32;;
9689;SDS011;4884;42.614;23.340;2022-07-23T14:54:34;11.20;;;5.80;;
9689;SDS011;4884;42.614;23.340;2022-07-23T14:57:01;6.50;;;4.93;;
9689;SDS011;4884;42.614;23.340;2022-07-23T14:59:27;11.20;;;5.55;;
9689;SDS011;4884;42.614;23.340;2022-07-23T15:01:55;13.48;;;5.78;;
9689;SDS011;4884;42.614;23.340;2022-07-23T15:04:22;6.47;;;4.65;;
9689;SDS011;4884;42.614;23.340;2022-07-23T15:06:47;7.13;;;4.97;;
9689;SDS011;4884;42.614;23.340;2022-07-23T15:09:13;10.98;;;6.13;;
9689;SDS011;4884;42.614;23.340;2022-07-23T15:11:39;14.98;;;7.00;;
9689;SDS011;4884;42.614;23.340;2022-07-23T15:14:04;10.15;;;5.78;;
9689;SDS011;4884;42.614;23.340;2022-07-23T15:16:30;10.85;;;5.38;;
9689;SDS011;4884;42.614;23.340;2022-07-23T15:18:56;11.63;;;6.20;;
9689;SDS011;4884;42.614;23.340;2022-07-23T15:21:22;7.82;;;5.40;;
9689;SDS011;4884;42.614;23.340;2022-07-23T15:23:48;6.72;;;4.82;;
9689;SDS011;4884;42.614;23.340;2022-07-23T15:26:13;11.30;;;6.82;;
9689;SDS011;4884;42.614;23.340;2022-07-23T15:28:40;8.73;;;6.05;;
9689;SDS011;4884;42.614;23.340;2022-07-23T15:31:06;11.93;;;6.65;;
9689;SDS011;4884;42.614;23.340;2022-07-23T15:33:32;9.50;;;6.18;;
9689;SDS011;4884;42.614;23.340;2022-07-23T15:35:57;8.43;;;6.18;;
9689;SDS011;4884;42.614;23.340;2022-07-23T15:38:24;9.93;;;6.25;;
9689;SDS011;4884;42.614;23.340;2022-07-23T15:40:50;13.30;;;6.65;;
9689;SDS011;4884;42.614;23.340;2022-07-23T15:43:16;11.55;;;6.63;;
9689;SDS011;4884;42.614;23.340;2022-07-23T15:45:42;12.35;;;6.70;;
9689;SDS011;4884;42.614;23.340;2022-07-23T15:48:07;10.45;;;6.80;;